Time;durP1;ratioP1;P1;durP2;ratioP2;P2;SDS_P1;SDS_P2;PMS_P1;PMS_P2;Temp;Humidity;BMP_temperature;BMP_pressure;BME280_temperature;BME280_humidity;BME280_pressure;Samples;Min_cycle;Max_cycle;Signal;HPM_P1;HPM_P2
2023/04/09 00:01:54;;;;;;;34.60;16.92;;;6.40;99.90;;;;;;5049398;28;20041;-64
2023/04/09 00:04:23;;;;;;;37.45;17.65;;;6.40;99.90;;;;;;5047738;28;20017;-64
2023/04/09 00:06:49;;;;;;;35.67;17.10;;;6.40;99.90;;;;;;5048308;28;20033;-66
2023/04/09 00:09:15;;;;;;;35.38;16.85;;;6.40;99.90;;;;;;5042537;28;20184;-66
2023/04/09 00:11:41;;;;;;;32.45;16.15;;;6.40;99.90;;;;;;5047028;28;20052;-64
2023/04/09 00:14:06;;;;;;;33.05;16.67;;;6.40;99.90;;;;;;5046967;28;20100;-64
2023/04/09 00:16:32;;;;;;;35.25;16.98;;;6.50;99.90;;;;;;5046436;28;20112;-64
2023/04/09 00:18:58;;;;;;;34.50;16.13;;;6.40;99.90;;;;;;5032962;28;20461;-70
2023/04/09 00:21:23;;;;;;;30.73;15.07;;;6.40;99.90;;;;;;5035493;28;20551;-64
2023/04/09 00:23:49;;;;;;;32.78;16.98;;;6.30;99.90;;;;;;5048549;28;20079;-66
2023/04/09 00:26:15;;;;;;;33.25;16.33;;;6.20;99.90;;;;;;5054028;28;20414;-65
2023/04/09 00:28:40;;;;;;;33.35;15.82;;;6.10;99.90;;;;;;5053432;28;20333;-64
2023/04/09 00:31:06;;;;;;;29.60;14.45;;;6.10;99.90;;;;;;5054065;28;20032;-65
2023/04/09 00:33:32;;;;;;;31.27;15.02;;;6.00;99.90;;;;;;5050650;28;20029;-65
2023/04/09 00:35:57;;;;;;;31.98;14.82;;;6.00;99.90;;;;;;5032284;28;20025;-65
2023/04/09 00:38:23;;;;;;;33.70;16.60;;;6.10;99.90;;;;;;5045507;28;20063;-65
2023/04/09 00:40:50;;;;;;;32.63;16.25;;;6.00;99.90;;;;;;5038397;28;20059;-65
2023/04/09 00:43:16;;;;;;;34.10;16.85;;;6.10;99.90;;;;;;5041391;28;20064;-68
2023/04/09 00:45:43;;;;;;;32.42;15.77;;;6.10;99.90;;;;;;5042863;28;20026;-64
2023/04/09 00:48:08;;;;;;;34.10;15.57;;;6.20;99.90;;;;;;5032622;28;20064;-64
2023/04/09 00:50:35;;;;;;;35.03;17.15;;;6.20;99.90;;;;;;5050490;28;20075;-67
2023/04/09 00:53:00;;;;;;;35.08;15.90;;;6.20;99.90;;;;;;5052025;28;20038;-71
2023/04/09 00:55:27;;;;;;;31.60;15.32;;;6.20;99.90;;;;;;5053499;28;20028;-64
2023/04/09 00:57:52;;;;;;;33.95;16.20;;;6.10;99.90;;;;;;5037943;28;20056;-64
2023/04/09 01:00:18;;;;;;;32.42;15.93;;;6.10;99.90;;;;;;5045039;28;20385;-64
2023/04/09 01:02:43;;;;;;;32.28;15.30;;;6.10;99.90;;;;;;5052868;28;20068;-64
2023/04/09 01:05:11;;;;;;;32.97;15.25;;;6.20;99.90;;;;;;5056810;28;20036;-67
2023/04/09 01:07:58;;;;;;;29.92;15.25;;;6.20;99.90;;;;;;5062679;28;20150;-64
2023/04/09 01:10:39;;;;;;;33.15;16.20;;;6.20;99.90;;;;;;5041150;28;20104;-67
2023/04/09 01:13:12;;;;;;;;;;;6.10;99.90;;;;;;5067161;28;20040;-70
2023/04/09 01:15:48;;;;;;;30.63;14.90;;;6.00;99.90;;;;;;5040682;28;19909;-64
2023/04/09 01:18:23;;;;;;;31.15;15.02;;;6.00;99.90;;;;;;5031740;28;20084;-65
2023/04/09 01:20:59;;;;;;;31.58;15.15;;;6.00;99.90;;;;;;5042698;28;20033;-64
2023/04/09 01:24:01;;;;;;;33.83;16.20;;;6.00;99.90;;;;;;5049669;28;20087;-68
2023/04/09 01:26:32;;;;;;;31.92;14.95;;;6.00;99.90;;;;;;5044585;28;20040;-64
2023/04/09 01:28:59;;;;;;;32.58;15.75;;;6.10;99.90;;;;;;5053856;28;20075;-63
2023/04/09 01:31:35;;;;;;;32.70;16.00;;;6.10;99.90;;;;;;5048065;28;20047;-65
2023/04/09 01:34:02;;;;;;;32.95;15.45;;;6.10;99.90;;;;;;5050519;28;20108;-65
2023/04/09 01:36:31;;;;;;;32.38;15.30;;;6.10;99.90;;;;;;5043127;28;20033;-64
2023/04/09 01:38:58;;;;;;;32.15;14.73;;;6.10;99.90;;;;;;5043035;28;20043;-64
2023/04/09 01:41:25;;;;;;;30.85;14.77;;;6.10;99.90;;;;;;5037246;28;20166;-68
2023/04/09 01:43:52;;;;;;;34.22;15.38;;;6.10;99.90;;;;;;5048409;28;20526;-65
2023/04/09 01:46:19;;;;;;;35.33;15.77;;;6.10;99.90;;;;;;5057950;28;20468;-71
2023/04/09 01:48:45;;;;;;;29.60;14.77;;;6.10;99.90;;;;;;5060220;28;20037;-65
2023/04/09 01:51:13;;;;;;;29.58;14.90;;;6.10;99.90;;;;;;5042939;28;20405;-65
2023/04/09 01:53:39;;;;;;;31.27;14.80;;;6.10;99.90;;;;;;5042770;28;20041;-64
2023/04/09 01:56:06;;;;;;;32.10;14.82;;;6.10;99.90;;;;;;5044371;28;20108;-71
2023/04/09 01:58:35;;;;;;;29.30;14.48;;;6.10;99.90;;;;;;5033832;28;20083;-64
2023/04/09 02:01:35;;;;;;;32.55;15.18;;;6.10;99.90;;;;;;5038026;28;20039;-65
2023/04/09 02:04:14;;;;;;;29.95;14.40;;;6.00;99.90;;;;;;5040095;28;20041;-66
2023/04/09 02:06:52;;;;;;;29.17;14.45;;;6.00;99.90;;;;;;5035290;28;20032;-65
2023/04/09 02:09:20;;;;;;;30.15;14.07;;;6.00;99.90;;;;;;5045306;28;20150;-66
2023/04/09 02:11:47;;;;;;;29.92;14.52;;;6.00;99.90;;;;;;5049354;28;20040;-64
2023/04/09 02:14:15;;;;;;;28.80;14.73;;;6.00;99.90;;;;;;5048457;28;20040;-65
2023/04/09 02:16:41;;;;;;;32.40;15.38;;;6.10;99.90;;;;;;5047691;28;20404;-66
2023/04/09 02:19:07;;;;;;;31.02;15.90;;;6.10;99.90;;;;;;5043504;28;20435;-70
2023/04/09 02:21:32;;;;;;;34.70;16.30;;;6.00;99.90;;;;;;5029125;28;20033;-65
2023/04/09 02:23:58;;;;;;;37.40;16.65;;;6.00;99.90;;;;;;5033553;28;20037;-65
2023/04/09 02:26:24;;;;;;;35.72;15.98;;;6.00;99.90;;;;;;5052101;28;20119;-64
2023/04/09 02:28:49;;;;;;;31.52;15.55;;;6.00;99.90;;;;;;5068919;28;20044;-68
2023/04/09 02:31:15;;;;;;;31.45;15.57;;;6.00;99.90;;;;;;5041614;28;20028;-66
2023/04/09 02:33:41;;;;;;;32.22;15.68;;;6.00;99.90;;;;;;5054526;28;20036;-64
2023/04/09 02:36:11;;;;;;;33.25;15.85;;;5.90;99.90;;;;;;5052143;28;20025;-71
2023/04/09 02:38:40;;;;;;;31.90;15.20;;;5.90;99.90;;;;;;5057784;28;20390;-64
2023/04/09 02:41:06;;;;;;;32.85;14.68;;;5.90;99.90;;;;;;5053625;28;20060;-70
2023/04/09 02:43:32;;;;;;;31.88;14.77;;;5.90;99.90;;;;;;5042854;28;20474;-64
2023/04/09 02:45:57;;;;;;;35.90;14.88;;;5.90;99.90;;;;;;5055716;28;20024;-64
2023/04/09 02:48:23;;;;;;;33.55;15.00;;;5.90;99.90;;;;;;5057832;28;20024;-64
2023/04/09 02:50:49;;;;;;;30.42;15.18;;;5.90;99.90;;;;;;5046590;28;20056;-69
2023/04/09 02:53:15;;;;;;;32.13;14.68;;;5.90;99.90;;;;;;5042052;28;20037;-66
2023/04/09 02:55:40;;;;;;;32.20;15.00;;;5.90;99.90;;;;;;5055193;28;20031;-65
2023/04/09 02:58:06;;;;;;;32.80;14.73;;;5.80;99.90;;;;;;5050526;28;20104;-66
2023/04/09 03:00:31;;;;;;;31.95;14.48;;;5.80;99.90;;;;;;5050740;28;20086;-66
2023/04/09 03:02:57;;;;;;;35.08;15.45;;;5.80;99.90;;;;;;5057639;28;20040;-65
2023/04/09 03:05:23;;;;;;;34.90;16.33;;;5.70;99.90;;;;;;5065055;28;20039;-67
2023/04/09 03:07:49;;;;;;;32.03;15.25;;;5.60;99.90;;;;;;5064962;28;20099;-67
2023/04/09 03:10:14;;;;;;;31.95;15.48;;;5.50;99.90;;;;;;5032618;28;20545;-67
2023/04/09 03:12:43;;;;;;;35.92;16.70;;;5.50;99.90;;;;;;5047178;28;20029;-65
2023/04/09 03:15:09;;;;;;;31.45;15.00;;;5.50;99.90;;;;;;5048493;28;20052;-70
2023/04/09 03:17:35;;;;;;;34.60;15.93;;;5.50;99.90;;;;;;5054460;28;20032;-66
2023/04/09 03:20:01;;;;;;;40.30;15.82;;;5.50;99.90;;;;;;5057480;28;20028;-64
2023/04/09 03:22:26;;;;;;;29.67;14.93;;;5.50;99.90;;;;;;5050089;28;20116;-66
2023/04/09 03:24:52;;;;;;;35.20;15.65;;;5.50;99.90;;;;;;5054074;28;20025;-66
2023/04/09 03:27:17;;;;;;;33.60;14.85;;;5.60;99.90;;;;;;5063227;28;20024;-66
2023/04/09 03:29:43;;;;;;;32.67;14.85;;;5.60;99.90;;;;;;5061088;28;20108;-66
2023/04/09 03:32:09;;;;;;;34.05;15.55;;;5.60;99.90;;;;;;5041775;28;20033;-64
2023/04/09 03:34:35;;;;;;;36.20;15.02;;;5.60;99.90;;;;;;5054847;28;20149;-67
2023/04/09 03:37:00;;;;;;;32.47;14.73;;;5.60;99.90;;;;;;5044874;28;20083;-67
2023/04/09 03:39:29;;;;;;;30.67;14.93;;;5.60;99.90;;;;;;5044531;28;20036;-65
2023/04/09 03:41:56;;;;;;;33.55;14.80;;;5.70;99.90;;;;;;5041815;28;20059;-66
2023/04/09 03:44:22;;;;;;;32.15;15.13;;;5.70;99.90;;;;;;5062757;28;20128;-64
2023/04/09 03:46:48;;;;;;;32.30;14.88;;;5.70;99.90;;;;;;5050609;28;20124;-65
2023/04/09 03:49:14;;;;;;;35.78;15.85;;;5.70;99.90;;;;;;5060385;28;20155;-71
2023/04/09 03:51:39;;;;;;;32.03;14.82;;;5.70;99.90;;;;;;5063707;28;20056;-68
2023/04/09 03:54:05;;;;;;;32.65;14.63;;;5.70;99.90;;;;;;5052589;28;20374;-67
2023/04/09 03:56:30;;;;;;;32.88;15.15;;;5.80;99.90;;;;;;5028629;28;20025;-67
2023/04/09 03:58:56;;;;;;;33.40;15.60;;;5.70;99.90;;;;;;5057611;28;20035;-68
2023/04/09 04:01:22;;;;;;;34.20;15.80;;;5.70;99.90;;;;;;5042654;28;20029;-66
2023/04/09 04:03:47;;;;;;;37.35;15.75;;;5.70;99.90;;;;;;5033809;28;20049;-65
2023/04/09 04:06:13;;;;;;;35.58;15.23;;;5.70;99.90;;;;;;5045681;28;20033;-70
2023/04/09 04:08:38;;;;;;;35.40;15.80;;;5.70;99.90;;;;;;5046712;28;20048;-65
2023/04/09 04:11:04;;;;;;;34.38;15.65;;;5.70;99.90;;;;;;5041588;28;20044;-69
2023/04/09 04:13:30;;;;;;;34.90;15.25;;;5.60;99.90;;;;;;5027781;28;20037;-68
2023/04/09 04:15:56;;;;;;;35.25;15.00;;;5.60;99.90;;;;;;5042714;28;20036;-65
2023/04/09 04:18:21;;;;;;;32.65;15.52;;;5.60;99.90;;;;;;5033475;28;20072;-65
2023/04/09 04:20:47;;;;;;;34.95;15.27;;;5.60;99.90;;;;;;5034223;28;20104;-65
2023/04/09 04:23:12;;;;;;;34.10;15.73;;;5.50;99.90;;;;;;5048898;28;20037;-69
2023/04/09 04:25:41;;;;;;;33.65;15.07;;;5.50;99.90;;;;;;5046188;28;20061;-68
2023/04/09 04:28:07;;;;;;;30.98;14.23;;;5.40;99.90;;;;;;5048445;28;20024;-65
2023/04/09 04:30:33;;;;;;;35.97;15.98;;;5.30;99.90;;;;;;5051986;28;20159;-65
2023/04/09 04:32:59;;;;;;;34.38;14.73;;;5.20;99.90;;;;;;5061846;28;20835;-65
2023/04/09 04:35:24;;;;;;;31.23;14.43;;;5.10;99.90;;;;;;5060324;28;20147;-67
2023/04/09 04:37:50;;;;;;;29.45;13.57;;;5.10;99.90;;;;;;5051532;28;20083;-65
2023/04/09 04:40:16;;;;;;;33.75;14.43;;;5.00;99.90;;;;;;5057946;28;20037;-70
2023/04/09 04:42:42;;;;;;;35.50;15.35;;;5.00;99.90;;;;;;5053316;28;20095;-64
2023/04/09 04:45:08;;;;;;;34.42;14.80;;;4.90;99.90;;;;;;5057608;28;20100;-64
2023/04/09 04:47:34;;;;;;;38.03;15.80;;;4.80;99.90;;;;;;5046629;28;20044;-63
2023/04/09 04:50:00;;;;;;;34.67;15.45;;;4.80;99.90;;;;;;5058969;28;20041;-66
2023/04/09 04:52:26;;;;;;;36.15;15.90;;;4.80;99.90;;;;;;5056604;28;20040;-64
2023/04/09 04:54:51;;;;;;;35.20;15.80;;;4.70;99.90;;;;;;5045622;28;20035;-66
2023/04/09 04:57:17;;;;;;;42.25;19.92;;;4.60;99.90;;;;;;5037933;28;20461;-70
2023/04/09 04:59:43;;;;;;;39.83;17.80;;;4.60;99.90;;;;;;5044846;28;20458;-66
2023/04/09 05:02:09;;;;;;;37.35;15.82;;;4.50;99.90;;;;;;5039315;28;20039;-64
2023/04/09 05:04:35;;;;;;;34.83;15.13;;;4.50;99.90;;;;;;5048175;28;20025;-64
2023/04/09 05:07:01;;;;;;;34.58;15.40;;;4.40;99.90;;;;;;5046902;28;20040;-64
2023/04/09 05:09:26;;;;;;;33.78;15.43;;;4.40;99.90;;;;;;5054372;28;20032;-64
2023/04/09 05:11:52;;;;;;;34.45;14.98;;;4.50;99.90;;;;;;5042086;28;20041;-64
2023/04/09 05:14:20;;;;;;;38.20;16.65;;;4.50;99.90;;;;;;5066108;28;20032;-71
2023/04/09 05:16:45;;;;;;;38.33;16.17;;;4.50;99.90;;;;;;5049659;28;20060;-64
2023/04/09 05:19:14;;;;;;;36.95;15.85;;;4.60;99.90;;;;;;5048717;28;20056;-64
2023/04/09 05:21:40;;;;;;;36.10;15.70;;;4.70;99.90;;;;;;5034809;28;20048;-65
2023/04/09 05:24:05;;;;;;;38.38;16.50;;;4.70;99.90;;;;;;5043185;28;20029;-64
2023/04/09 05:26:31;;;;;;;39.47;15.85;;;4.80;99.90;;;;;;5048374;28;20032;-65
2023/04/09 05:28:57;;;;;;;42.75;17.00;;;4.90;99.90;;;;;;5048275;28;20071;-65
2023/04/09 05:31:22;;;;;;;38.95;16.20;;;4.90;99.90;;;;;;5052556;28;20100;-64
2023/04/09 05:33:48;;;;;;;39.15;17.23;;;5.00;99.90;;;;;;5051167;28;20029;-64
2023/04/09 05:36:15;;;;;;;37.80;16.10;;;5.10;99.90;;;;;;5048256;28;20119;-65
2023/04/09 05:38:42;;;;;;;34.45;15.48;;;5.20;99.90;;;;;;5051429;28;20164;-64
2023/04/09 05:41:07;;;;;;;31.60;14.15;;;5.20;99.90;;;;;;5051393;28;20050;-64
2023/04/09 05:43:33;;;;;;;33.08;15.15;;;5.30;99.90;;;;;;5048528;28;20071;-65
2023/04/09 05:45:58;;;;;;;32.70;14.63;;;5.30;99.90;;;;;;5050960;28;20473;-64
2023/04/09 05:48:24;;;;;;;31.52;15.13;;;5.30;99.90;;;;;;5049451;28;20044;-66
2023/04/09 05:50:53;;;;;;;29.83;14.15;;;5.30;99.90;;;;;;5049506;28;20053;-66
2023/04/09 05:53:20;;;;;;;30.50;14.13;;;5.40;99.90;;;;;;5042711;28;20243;-69
2023/04/09 05:55:48;;;;;;;30.58;14.00;;;5.40;99.90;;;;;;5046691;28;20025;-66
2023/04/09 05:58:14;;;;;;;33.40;14.77;;;5.50;99.90;;;;;;5051034;28;20351;-65
2023/04/09 06:00:41;;;;;;;40.42;17.27;;;5.50;99.90;;;;;;5044833;28;20066;-64
2023/04/09 06:03:08;;;;;;;51.70;20.70;;;5.70;99.90;;;;;;5030188;28;20041;-64
2023/04/09 06:05:33;;;;;;;42.20;17.83;;;5.80;99.90;;;;;;5040153;28;20028;-64
2023/04/09 06:07:59;;;;;;;52.05;22.90;;;5.90;99.90;;;;;;5046405;28;20029;-66
2023/04/09 06:10:26;;;;;;;38.63;16.60;;;6.00;99.90;;;;;;5041498;28;20040;-67
2023/04/09 06:12:51;;;;;;;33.25;15.95;;;5.90;99.90;;;;;;5048679;28;20044;-64
2023/04/09 06:15:17;;;;;;;39.08;16.13;;;5.70;99.90;;;;;;5049295;28;20021;-66
2023/04/09 06:17:43;;;;;;;39.78;16.33;;;5.70;99.90;;;;;;5048139;28;20025;-66
2023/04/09 06:20:10;;;;;;;38.25;16.23;;;5.70;99.90;;;;;;5051748;28;20036;-66
2023/04/09 06:22:36;;;;;;;36.58;16.70;;;5.70;99.90;;;;;;5049918;28;20522;-63
2023/04/09 06:25:02;;;;;;;37.05;16.92;;;5.80;99.90;;;;;;5047157;28;20358;-67
2023/04/09 06:27:27;;;;;;;35.65;16.50;;;5.80;99.90;;;;;;5045080;28;20449;-65
2023/04/09 06:29:53;;;;;;;40.17;17.55;;;5.90;99.90;;;;;;5048546;28;20032;-65
2023/04/09 06:32:19;;;;;;;42.92;18.75;;;6.00;99.90;;;;;;5050961;28;20048;-65
2023/04/09 06:34:44;;;;;;;36.88;16.10;;;5.90;99.90;;;;;;5042775;28;20029;-66
2023/04/09 06:37:10;;;;;;;36.03;16.00;;;5.90;99.90;;;;;;5048774;28;20033;-66
2023/04/09 06:39:35;;;;;;;37.10;16.80;;;6.00;99.90;;;;;;5051069;28;20477;-65
2023/04/09 06:42:02;;;;;;;35.40;15.70;;;6.10;99.90;;;;;;5040776;28;20393;-66
2023/04/09 06:44:29;;;;;;;38.45;16.38;;;6.20;99.90;;;;;;5037878;28;20159;-65
2023/04/09 06:46:55;;;;;;;35.80;15.77;;;6.30;99.90;;;;;;5059358;28;20040;-69
2023/04/09 06:49:20;;;;;;;37.05;17.05;;;6.40;99.90;;;;;;5050760;28;20036;-66
2023/04/09 06:51:46;;;;;;;37.45;16.45;;;6.50;99.90;;;;;;5047675;28;20478;-65
2023/04/09 06:54:11;;;;;;;38.67;16.58;;;6.40;99.90;;;;;;5055543;28;20037;-65
2023/04/09 06:56:37;;;;;;;35.38;16.42;;;6.50;99.90;;;;;;5064527;28;20032;-65
2023/04/09 06:59:02;;;;;;;39.03;19.00;;;6.70;99.90;;;;;;5067125;28;20029;-66
2023/04/09 07:01:28;;;;;;;34.17;16.05;;;6.90;99.90;;;;;;5050617;28;20117;-65
2023/04/09 07:03:54;;;;;;;45.38;23.00;;;7.00;99.90;;;;;;5038105;28;20972;-67
2023/04/09 07:06:20;;;;;;;36.38;17.23;;;7.10;99.90;;;;;;5054070;28;20033;-68
2023/04/09 07:08:46;;;;;;;32.05;15.43;;;7.10;99.90;;;;;;5050662;28;20808;-64
2023/04/09 07:11:11;;;;;;;34.08;16.20;;;7.10;99.90;;;;;;5055293;28;20032;-65
2023/04/09 07:13:37;;;;;;;33.58;15.80;;;7.10;99.90;;;;;;5058809;28;20048;-64
2023/04/09 07:16:03;;;;;;;35.00;15.52;;;7.30;99.90;;;;;;5043621;28;20057;-65
2023/04/09 07:18:29;;;;;;;32.17;15.15;;;7.30;99.90;;;;;;5041429;28;20029;-65
2023/04/09 07:20:55;;;;;;;29.42;14.25;;;7.30;99.90;;;;;;5038192;28;21775;-66
2023/04/09 07:23:21;;;;;;;31.40;15.15;;;7.20;99.90;;;;;;5051548;28;20054;-65
2023/04/09 07:25:47;;;;;;;29.48;14.77;;;7.40;99.90;;;;;;5042028;28;20046;-66
2023/04/09 07:28:12;;;;;;;33.03;15.30;;;7.40;99.90;;;;;;5047055;28;20025;-66
2023/04/09 07:30:39;;;;;;;28.75;13.73;;;7.50;99.90;;;;;;5046864;28;20372;-65
2023/04/09 07:33:04;;;;;;;30.42;14.40;;;7.70;99.90;;;;;;5045659;28;20091;-68
2023/04/09 07:35:31;;;;;;;27.67;13.32;;;7.80;99.90;;;;;;5048365;28;20024;-66
2023/04/09 07:37:57;;;;;;;32.75;15.07;;;7.80;99.90;;;;;;5047171;28;20112;-66
2023/04/09 07:40:23;;;;;;;30.50;14.57;;;7.80;99.90;;;;;;5043967;28;20107;-66
2023/04/09 07:42:49;;;;;;;56.70;29.55;;;7.80;99.90;;;;;;5046919;28;20033;-65
2023/04/09 07:45:16;;;;;;;31.10;15.05;;;7.80;99.90;;;;;;5038066;28;21665;-66
2023/04/09 07:47:41;;;;;;;30.10;15.10;;;7.80;99.90;;;;;;5045458;28;20461;-64
2023/04/09 07:50:08;;;;;;;34.05;16.95;;;7.80;99.90;;;;;;5045308;28;20078;-64
2023/04/09 07:52:33;;;;;;;35.00;18.02;;;7.80;99.90;;;;;;5046003;28;20045;-65
2023/04/09 07:54:59;;;;;;;30.83;14.38;;;7.90;99.90;;;;;;5046238;28;20037;-66
2023/04/09 07:57:25;;;;;;;31.77;16.05;;;8.00;99.90;;;;;;5048343;28;20033;-70
2023/04/09 07:59:52;;;;;;;34.50;15.57;;;8.10;99.90;;;;;;5045094;28;20021;-64
2023/04/09 08:02:17;;;;;;;29.63;14.63;;;8.30;99.90;;;;;;5056920;28;20036;-65
2023/04/09 08:04:43;;;;;;;26.38;13.50;;;8.30;99.90;;;;;;5048779;28;20041;-66
2023/04/09 08:07:09;;;;;;;29.83;15.00;;;8.40;99.90;;;;;;5035636;28;20087;-65
2023/04/09 08:09:35;;;;;;;32.72;16.35;;;8.40;99.90;;;;;;5046118;28;20503;-65
2023/04/09 08:12:00;;;;;;;35.58;17.98;;;8.40;99.90;;;;;;5048126;28;20071;-67
2023/04/09 08:14:26;;;;;;;31.58;15.10;;;8.60;99.90;;;;;;5032506;28;20021;-70
2023/04/09 08:16:52;;;;;;;31.13;15.32;;;8.70;99.90;;;;;;5027848;28;20041;-65
2023/04/09 08:19:19;;;;;;;29.73;14.88;;;8.80;99.90;;;;;;5050471;28;20027;-65
2023/04/09 08:21:47;;;;;;;32.90;14.93;;;8.90;99.90;;;;;;5043458;28;20024;-66
2023/04/09 08:24:13;;;;;;;30.55;15.43;;;8.90;99.90;;;;;;5054475;28;20033;-66
2023/04/09 08:26:39;;;;;;;30.15;15.65;;;8.90;99.90;;;;;;5040658;28;20034;-65
2023/04/09 08:29:05;;;;;;;28.30;14.20;;;9.10;99.90;;;;;;5042083;28;20033;-68
2023/04/09 08:31:31;;;;;;;30.40;15.13;;;9.10;99.90;;;;;;5043721;28;20465;-72
2023/04/09 08:33:57;;;;;;;28.30;14.40;;;9.10;99.90;;;;;;5044270;28;20025;-64
2023/04/09 08:36:22;;;;;;;29.23;14.30;;;9.10;99.90;;;;;;5043472;28;20025;-68
2023/04/09 08:38:48;;;;;;;25.10;12.85;;;9.20;99.90;;;;;;5044426;28;20028;-64
2023/04/09 08:41:24;;;;;;;42.75;20.15;;;9.30;99.90;;;;;;5031832;28;20501;-66
2023/04/09 08:43:51;;;;;;;25.73;13.43;;;9.30;99.90;;;;;;5036033;28;20064;-65
2023/04/09 08:46:18;;;;;;;28.90;13.35;;;9.50;99.90;;;;;;5047901;28;20082;-65
2023/04/09 08:48:45;;;;;;;25.65;12.80;;;9.60;99.90;;;;;;5064799;28;20037;-66
2023/04/09 08:51:15;;;;;;;23.63;12.40;;;9.60;99.90;;;;;;5055985;28;20049;-65
2023/04/09 08:53:46;;;;;;;26.50;12.57;;;9.80;99.90;;;;;;5041202;28;20632;-64
2023/04/09 08:56:13;;;;;;;26.25;13.70;;;9.90;99.90;;;;;;5047812;28;20096;-63
2023/04/09 08:58:43;;;;;;;24.10;11.93;;;9.90;99.90;;;;;;5047141;28;20032;-65
2023/04/09 09:01:22;;;;;;;24.83;14.07;;;10.00;99.90;;;;;;5047302;28;20759;-63
2023/04/09 09:03:55;;;;;;;27.73;13.35;;;10.20;99.90;;;;;;5045790;28;20065;-63
2023/04/09 09:06:23;;;;;;;25.50;13.35;;;10.10;99.90;;;;;;5047986;28;20029;-63
2023/04/09 09:09:08;;;;;;;24.10;12.27;;;10.20;99.90;;;;;;5047059;28;20029;-65
2023/04/09 09:11:45;;;;;;;25.17;12.57;;;10.20;99.90;;;;;;5048017;28;20424;-67
2023/04/09 09:14:15;;;;;;;24.73;12.55;;;10.40;99.90;;;;;;5051617;28;20510;-65
2023/04/09 09:17:02;;;;;;;26.02;13.07;;;10.60;99.90;;;;;;5050621;28;20025;-64
2023/04/09 09:19:30;;;;;;;25.10;12.90;;;10.80;99.90;;;;;;5048207;28;20044;-64
2023/04/09 09:21:56;;;;;;;23.70;12.00;;;10.80;99.90;;;;;;5050368;28;20044;-65
2023/04/09 09:24:22;;;;;;;22.73;12.02;;;11.00;99.90;;;;;;5051319;28;20025;-64
2023/04/09 09:26:48;;;;;;;21.00;11.10;;;11.20;99.90;;;;;;5045916;28;20017;-65
2023/04/09 09:29:14;;;;;;;22.98;11.90;;;10.90;99.90;;;;;;5044844;28;20065;-65
2023/04/09 09:31:48;;;;;;;22.83;11.35;;;10.40;99.90;;;;;;5045186;28;20127;-69
2023/04/09 09:34:15;;;;;;;24.13;11.63;;;10.80;99.90;;;;;;5040895;28;20044;-67
2023/04/09 09:36:41;;;;;;;22.95;11.73;;;11.00;99.90;;;;;;5041546;28;20036;-63
2023/04/09 09:39:09;;;;;;;21.10;10.95;;;11.00;99.90;;;;;;5039886;28;20025;-63
2023/04/09 09:41:35;;;;;;;21.77;11.85;;;10.80;99.90;;;;;;5045328;28;20029;-67
2023/04/09 09:44:02;;;;;;;21.48;10.70;;;11.00;99.90;;;;;;5049535;28;20397;-63
2023/04/09 09:46:33;;;;;;;17.35;9.38;;;11.20;99.90;;;;;;5050102;28;20021;-63
2023/04/09 09:48:59;;;;;;;17.50;9.45;;;11.30;99.90;;;;;;5052478;28;20032;-63
2023/04/09 09:51:28;;;;;;;16.92;9.27;;;11.60;99.90;;;;;;5061151;28;21557;-64
2023/04/09 09:53:56;;;;;;;18.17;9.30;;;11.70;99.90;;;;;;5049611;28;20096;-65
2023/04/09 09:56:25;;;;;;;18.35;10.05;;;11.90;99.90;;;;;;5050474;28;20029;-63
2023/04/09 09:59:09;;;;;;;18.52;9.50;;;12.00;99.90;;;;;;5051561;28;20029;-63
2023/04/09 10:01:36;;;;;;;17.73;9.95;;;11.70;99.90;;;;;;5061758;28;20056;-70
2023/04/09 10:04:05;;;;;;;20.27;11.20;;;11.70;99.90;;;;;;5039895;28;20053;-63
2023/04/09 10:06:33;;;;;;;23.17;11.52;;;11.60;99.90;;;;;;5044491;28;20029;-64
2023/04/09 10:09:03;;;;;;;15.75;8.43;;;11.40;99.90;;;;;;5048474;28;20037;-62
2023/04/09 10:11:31;;;;;;;18.57;8.57;;;11.60;99.90;;;;;;5043177;28;20049;-64
2023/04/09 10:14:00;;;;;;;16.80;8.80;;;11.90;99.90;;;;;;5037411;28;20034;-62
2023/04/09 10:16:27;;;;;;;14.95;8.38;;;12.10;99.90;;;;;;5048003;28;20028;-63
2023/04/09 10:18:56;;;;;;;17.00;8.57;;;11.90;99.90;;;;;;5048980;28;20028;-65
2023/04/09 10:21:46;;;;;;;16.48;8.18;;;11.70;99.90;;;;;;5048794;28;20382;-64
2023/04/09 10:24:12;;;;;;;12.05;6.32;;;11.50;99.90;;;;;;5048805;28;20492;-62
2023/04/09 10:26:43;;;;;;;16.77;9.00;;;11.20;99.90;;;;;;5049238;28;20029;-68
2023/04/09 10:29:14;;;;;;;16.65;8.73;;;11.20;99.90;;;;;;5048753;28;20359;-63
2023/04/09 10:32:05;;;;;;;15.85;8.15;;;11.30;99.90;;;;;;5049172;28;20025;-64
2023/04/09 10:34:36;;;;;;;16.98;8.90;;;11.80;99.90;;;;;;5049817;28;20033;-62
2023/04/09 10:37:02;;;;;;;14.48;8.07;;;12.30;99.90;;;;;;5049739;28;20021;-62
2023/04/09 10:39:31;;;;;;;14.93;8.27;;;12.10;99.90;;;;;;5047625;28;20500;-64
2023/04/09 10:42:10;;;;;;;17.67;8.63;;;11.70;99.90;;;;;;5046589;28;20041;-64
2023/04/09 10:44:40;;;;;;;14.18;7.95;;;11.80;99.90;;;;;;5049404;28;20028;-68
2023/04/09 10:47:06;;;;;;;14.85;7.85;;;12.40;99.90;;;;;;5049585;28;20036;-63
2023/04/09 10:49:41;;;;;;;14.10;8.13;;;12.40;99.80;;;;;;5049478;28;20070;-63
2023/04/09 10:52:10;;;;;;;15.43;8.38;;;12.60;99.90;;;;;;5049122;28;20592;-63
2023/04/09 10:54:44;;;;;;;15.48;8.68;;;12.40;99.80;;;;;;5048840;28;20082;-68
2023/04/09 10:57:17;;;;;;;16.38;8.75;;;12.40;99.90;;;;;;5047471;28;20111;-63
2023/04/09 10:59:46;;;;;;;16.88;8.55;;;12.30;99.90;;;;;;5048255;28;20040;-66
2023/04/09 11:02:31;;;;;;;14.35;7.93;;;12.40;99.90;;;;;;5049450;28;20037;-63
2023/04/09 11:05:00;;;;;;;12.77;7.07;;;12.80;99.20;;;;;;5047987;28;20033;-62
2023/04/09 11:07:28;;;;;;;11.95;6.50;;;12.60;98.70;;;;;;5049221;28;20096;-63
2023/04/09 11:09:54;;;;;;;13.48;7.05;;;12.50;98.80;;;;;;5047437;28;20032;-65
2023/04/09 11:12:20;;;;;;;14.88;7.63;;;12.40;97.80;;;;;;5049201;28;20041;-64
2023/04/09 11:14:45;;;;;;;14.10;7.32;;;12.30;97.50;;;;;;5046966;28;20025;-63
2023/04/09 11:17:12;;;;;;;12.55;6.40;;;12.20;98.10;;;;;;5049303;28;20530;-63
2023/04/09 11:19:38;;;;;;;13.65;7.18;;;12.00;98.00;;;;;;5048345;28;20385;-68
2023/04/09 11:22:05;;;;;;;12.60;6.78;;;11.90;97.20;;;;;;5048724;28;20036;-63
2023/04/09 11:24:46;;;;;;;13.40;7.20;;;11.90;97.20;;;;;;5047736;28;20063;-65
2023/04/09 11:27:12;;;;;;;11.38;6.15;;;11.90;95.40;;;;;;5048973;28;20029;-62
2023/04/09 11:29:37;;;;;;;12.52;6.68;;;11.80;96.80;;;;;;5048817;28;20036;-70
2023/04/09 11:32:04;;;;;;;12.70;7.03;;;12.00;96.60;;;;;;5046928;28;20061;-64
2023/04/09 11:34:30;;;;;;;10.40;6.05;;;12.20;96.20;;;;;;5048141;28;20032;-63
2023/04/09 11:36:57;;;;;;;11.13;5.93;;;12.30;94.10;;;;;;5047830;28;20032;-65
2023/04/09 11:39:23;;;;;;;13.38;7.07;;;12.60;95.70;;;;;;5047761;28;20028;-66
2023/04/09 11:41:49;;;;;;;11.90;6.88;;;12.90;95.90;;;;;;5046460;28;20082;-63
2023/04/09 11:44:15;;;;;;;12.27;6.32;;;13.30;95.60;;;;;;5048630;28;20143;-65
2023/04/09 11:46:41;;;;;;;12.05;6.90;;;13.80;93.20;;;;;;5048403;28;20029;-67
2023/04/09 11:49:08;;;;;;;13.68;7.25;;;13.70;90.80;;;;;;5048286;28;20104;-62
2023/04/09 11:51:34;;;;;;;12.60;7.10;;;13.80;90.60;;;;;;5048399;28;20053;-65
2023/04/09 11:54:04;;;;;;;11.48;6.82;;;13.90;91.60;;;;;;5046665;28;20110;-62
2023/04/09 11:56:31;;;;;;;14.95;7.75;;;14.30;91.30;;;;;;5048538;28;20112;-66
2023/04/09 11:58:57;;;;;;;13.40;7.25;;;14.30;91.50;;;;;;5047657;28;20087;-63
2023/04/09 12:01:23;;;;;;;14.13;7.57;;;14.40;90.00;;;;;;5048365;28;20029;-65
2023/04/09 12:03:53;;;;;;;15.13;7.07;;;14.60;88.30;;;;;;5047474;28;20079;-65
2023/04/09 12:06:23;;;;;;;11.60;6.80;;;14.60;85.80;;;;;;5048095;28;20366;-63
2023/04/09 12:08:52;;;;;;;;;;;15.00;85.90;;;;;;5046937;28;20117;-65
2023/04/09 12:11:19;;;;;;;13.55;7.78;;;14.60;79.00;;;;;;5047256;28;19912;-62
2023/04/09 12:13:45;;;;;;;14.20;7.97;;;14.40;84.60;;;;;;5047529;28;20037;-68
2023/04/09 12:16:19;;;;;;;16.10;8.48;;;14.60;86.80;;;;;;5048252;28;20039;-63
2023/04/09 12:18:46;;;;;;;15.63;8.43;;;14.80;80.60;;;;;;5045980;28;20037;-64
2023/04/09 12:21:12;;;;;;;13.95;7.38;;;14.80;82.60;;;;;;5048305;28;20124;-63
2023/04/09 12:23:38;;;;;;;12.73;7.50;;;14.30;83.00;;;;;;5048035;28;20120;-62
2023/04/09 12:26:04;;;;;;;14.60;7.93;;;14.40;85.00;;;;;;5046682;28;20055;-64
2023/04/09 12:28:30;;;;;;;15.20;8.40;;;14.50;86.30;;;;;;5048476;28;20473;-66
2023/04/09 12:30:57;;;;;;;16.25;8.93;;;14.30;85.80;;;;;;5047421;28;20025;-64
2023/04/09 12:33:22;;;;;;;14.02;8.05;;;14.50;88.10;;;;;;5046774;28;20358;-63
2023/04/09 12:35:48;;;;;;;14.85;7.97;;;14.60;84.70;;;;;;5047378;28;20044;-64
2023/04/09 12:38:14;;;;;;;14.05;8.15;;;14.50;86.00;;;;;;5047913;28;20229;-63